createdAt,value
2019-03-05T00:00:20.419Z,90.99
2019-03-05T00:01:20.405Z,91.09
2019-03-05T00:02:20.425Z,90.99
2019-03-05T00:03:20.383Z,91.20
2019-03-05T00:04:20.369Z,90.64
2019-03-05T00:05:20.352Z,90.02
2019-03-05T00:06:20.347Z,90.64
2019-03-05T00:07:20.359Z,91.30
2019-03-05T00:08:20.342Z,90.99
2019-03-05T00:09:20.321Z,90.64
2019-03-05T00:10:20.314Z,91.16
2019-03-05T00:11:20.300Z,91.30
2019-03-05T00:12:20.315Z,91.26
2019-03-05T00:13:20.284Z,91.09
2019-03-05T00:14:20.269Z,91.05
2019-03-05T00:15:20.294Z,90.64
2019-03-05T00:16:20.248Z,89.09
2019-03-05T00:17:20.259Z,90.02
2019-03-05T00:18:20.230Z,90.12
2019-03-05T00:19:20.212Z,88.88
2019-03-05T00:20:20.210Z,88.78
2019-03-05T00:21:20.200Z,89.29
2019-03-05T00:22:20.208Z,89.09
2019-03-05T00:23:20.167Z,89.40
2019-03-05T00:24:20.160Z,89.19
2019-03-05T00:25:20.147Z,88.74
2019-03-05T00:26:20.146Z,90.12
2019-03-05T00:27:20.155Z,88.26
2019-03-05T00:28:20.115Z,88.74
2019-03-05T00:29:20.106Z,88.32
2019-03-05T00:30:20.097Z,88.88
2019-03-05T00:31:20.083Z,88.01
2019-03-05T00:32:20.095Z,89.19
2019-03-05T00:33:20.065Z,89.50
2019-03-05T00:34:20.059Z,89.50
2019-03-05T00:35:20.044Z,89.36
2019-03-05T00:36:20.033Z,89.36
2019-03-05T00:37:20.055Z,87.60
2019-03-05T00:38:20.012Z,89.25
2019-03-05T00:39:20.000Z,88.98
2019-03-05T00:40:19.993Z,88.64
2019-03-05T00:41:19.982Z,86.98
2019-03-05T00:42:19.993Z,86.73
2019-03-05T00:43:19.960Z,86.21
2019-03-05T00:44:19.945Z,87.60
2019-03-05T00:45:19.939Z,86.88
2019-03-05T00:46:19.924Z,86.77
2019-03-05T00:47:19.940Z,86.88
2019-03-05T00:48:19.909Z,87.18
2019-03-05T00:49:19.896Z,86.88
2019-03-05T00:50:19.885Z,87.49
2019-03-05T00:51:25.079Z,86.36
2019-03-05T00:52:20.919Z,85.80
2019-03-05T00:53:19.841Z,85.80
2019-03-05T00:54:19.832Z,86.21
2019-03-05T00:55:19.819Z,85.60
2019-03-05T00:56:19.808Z,86.73
2019-03-05T00:57:19.832Z,86.36
2019-03-05T00:58:19.789Z,86.36
2019-03-05T00:59:19.788Z,86.67
2019-03-05T01:00:19.774Z,86.67
2019-03-05T01:01:19.768Z,86.98
2019-03-05T01:02:19.763Z,86.05
2019-03-05T01:03:19.772Z,85.53
2019-03-05T01:04:19.737Z,86.05
2019-03-05T01:05:19.729Z,86.05
2019-03-05T01:06:19.715Z,86.15
2019-03-05T01:07:19.705Z,85.63
2019-03-05T01:08:19.900Z,86.15
2019-03-05T01:09:19.681Z,86.60
2019-03-05T01:10:19.673Z,85.32
2019-03-05T01:11:19.660Z,86.15
2019-03-05T01:12:19.657Z,86.71
2019-03-05T01:13:19.664Z,86.50
2019-03-05T01:14:19.632Z,86.57
2019-03-05T01:15:19.621Z,85.99
2019-03-05T01:16:19.609Z,85.32
2019-03-05T01:17:19.597Z,86.05
2019-03-05T01:18:19.612Z,84.81
2019-03-05T01:19:19.577Z,86.15
2019-03-05T01:20:19.566Z,84.70
2019-03-05T01:21:19.554Z,84.56
2019-03-05T01:22:19.546Z,82.90
2019-03-05T01:23:19.559Z,84.77
2019-03-05T01:24:19.519Z,85.42
2019-03-05T01:25:19.516Z,84.70
2019-03-05T01:26:19.507Z,84.29
2019-03-05T01:27:19.498Z,85.11
2019-03-05T01:28:19.508Z,84.19
2019-03-05T01:29:19.468Z,83.22
2019-03-05T01:30:19.459Z,83.63
2019-03-05T01:31:19.449Z,82.60
2019-03-05T01:32:19.441Z,82.80
2019-03-05T01:33:19.455Z,84.45
2019-03-05T01:34:19.416Z,82.60
2019-03-05T01:35:19.407Z,83.32
2019-03-05T01:36:19.400Z,84.45
2019-03-05T01:37:19.383Z,83.11
2019-03-05T01:38:19.407Z,83.63
2019-03-05T01:39:19.375Z,82.90
2019-03-05T01:40:19.352Z,82.60
2019-03-05T01:41:19.347Z,82.60
2019-03-05T01:42:19.338Z,83.32
2019-03-05T01:43:19.347Z,83.01
2019-03-05T01:44:19.311Z,82.90
2019-03-05T01:45:19.312Z,84.15
2019-03-05T01:46:19.288Z,84.45
2019-03-05T01:47:19.283Z,84.91
2019-03-05T01:48:19.296Z,83.15
2019-03-05T01:49:19.258Z,82.70
2019-03-05T01:50:19.251Z,83.01
2019-03-05T01:51:19.247Z,83.42
2019-03-05T01:52:19.230Z,83.42
2019-03-05T01:53:19.239Z,83.63
2019-03-05T01:54:19.208Z,83.46
2019-03-05T01:55:19.200Z,82.70
2019-03-05T01:56:19.188Z,83.11
2019-03-05T01:57:19.173Z,83.22
2019-03-05T01:58:19.189Z,84.25
2019-03-05T01:59:19.162Z,82.80
2019-03-05T02:00:19.148Z,82.60
2019-03-05T02:01:19.133Z,84.56
2019-03-05T02:02:19.125Z,82.50
2019-03-05T02:03:19.136Z,83.01
2019-03-05T02:04:19.101Z,82.84
2019-03-05T02:05:19.082Z,84.19
2019-03-05T02:06:19.080Z,83.87
2019-03-05T02:07:19.069Z,84.08
2019-03-05T02:08:19.081Z,82.95
2019-03-05T02:09:19.047Z,83.53
2019-03-05T02:10:19.035Z,82.64
2019-03-05T02:11:19.025Z,82.50
2019-03-05T02:12:19.018Z,82.80
2019-03-05T02:13:19.034Z,83.67
2019-03-05T02:14:18.999Z,83.46
2019-03-05T02:15:18.989Z,85.22
2019-03-05T02:16:18.972Z,84.74
2019-03-05T02:17:18.964Z,83.61
2019-03-05T02:18:18.976Z,84.29
2019-03-05T02:19:18.946Z,83.77
2019-03-05T02:20:18.931Z,84.08
2019-03-05T02:21:18.921Z,84.12
2019-03-05T02:22:18.908Z,83.81
2019-03-05T02:23:18.923Z,84.53
2019-03-05T02:24:18.896Z,82.67
2019-03-05T02:25:18.875Z,83.09
2019-03-05T02:26:18.869Z,82.88
2019-03-05T02:27:18.868Z,81.49
2019-03-05T02:28:18.874Z,83.05
2019-03-05T02:29:18.838Z,83.19
2019-03-05T02:30:18.830Z,83.71
2019-03-05T02:31:18.818Z,84.64
2019-03-05T02:32:18.804Z,83.29
2019-03-05T02:33:18.826Z,84.01
2019-03-05T02:34:18.783Z,83.71
2019-03-05T02:35:18.776Z,82.67
2019-03-05T02:36:18.768Z,82.67
2019-03-05T02:37:18.752Z,83.77
2019-03-05T02:38:18.778Z,82.67
2019-03-05T02:39:18.738Z,82.88
2019-03-05T02:40:18.724Z,83.67
2019-03-05T02:41:18.714Z,82.95
2019-03-05T02:42:18.712Z,81.91
2019-03-05T02:43:18.713Z,83.36
2019-03-05T02:44:18.684Z,83.19
2019-03-05T02:45:18.665Z,82.98
2019-03-05T02:46:18.656Z,84.64
2019-03-05T02:47:18.649Z,82.98
2019-03-05T02:48:18.661Z,83.87
2019-03-05T02:49:18.628Z,82.05
2019-03-05T02:50:18.615Z,82.67
2019-03-05T02:51:18.600Z,82.88
2019-03-05T02:52:18.593Z,83.05
2019-03-05T02:53:18.586Z,84.01
2019-03-05T02:54:18.599Z,83.19
2019-03-05T02:55:18.562Z,82.84
2019-03-05T02:56:18.561Z,82.12
2019-03-05T02:57:18.537Z,81.35
2019-03-05T02:58:18.549Z,82.90
2019-03-05T02:59:18.548Z,82.74
2019-03-05T03:00:18.517Z,82.64
2019-03-05T03:01:18.497Z,82.64
2019-03-05T03:02:18.489Z,82.74
2019-03-05T03:03:18.477Z,84.29
2019-03-05T03:04:18.490Z,83.87
2019-03-05T03:05:18.447Z,83.71
2019-03-05T03:06:18.448Z,84.22
2019-03-05T03:07:18.425Z,85.19
2019-03-05T03:08:18.416Z,84.27
2019-03-05T03:09:18.426Z,84.06
2019-03-05T03:10:18.398Z,84.58
2019-03-05T03:11:18.399Z,86.68
2019-03-05T03:12:18.382Z,86.58
2019-03-05T03:13:18.372Z,86.83
2019-03-05T03:14:18.386Z,88.18
2019-03-05T03:15:18.354Z,87.14
2019-03-05T03:16:18.341Z,87.76
2019-03-05T03:17:18.338Z,87.55
2019-03-05T03:18:18.317Z,87.04
2019-03-05T03:19:18.329Z,87.14
2019-03-05T03:20:18.305Z,87.04
2019-03-05T03:21:18.285Z,86.99
2019-03-05T03:22:18.287Z,87.62
2019-03-05T03:23:18.261Z,87.87
2019-03-05T03:24:18.280Z,87.97
2019-03-05T03:25:18.247Z,88.65
2019-03-05T03:26:18.238Z,88.39
2019-03-05T03:27:18.226Z,86.93
2019-03-05T03:28:18.207Z,88.34
2019-03-05T03:29:18.227Z,89.21
2019-03-05T03:30:18.304Z,91.08
2019-03-05T03:31:18.179Z,90.56
2019-03-05T03:32:18.171Z,91.95
2019-03-05T03:33:18.162Z,93.29
2019-03-05T03:34:18.178Z,93.13
2019-03-05T03:35:18.147Z,93.22
2019-03-05T03:36:18.320Z,95.03
2019-03-05T03:37:18.118Z,95.86
2019-03-05T03:38:18.144Z,95.90
2019-03-05T03:39:18.133Z,96.42
2019-03-05T03:40:18.087Z,96.52
2019-03-05T03:41:18.077Z,96.31
2019-03-05T03:42:18.063Z,95.90
2019-03-05T03:43:18.056Z,95.53
2019-03-05T03:44:18.075Z,95.21
2019-03-05T03:45:18.058Z,95.53
2019-03-05T03:46:18.026Z,95.26
2019-03-05T03:47:18.013Z,95.36
2019-03-05T03:48:18.009Z,96.25
2019-03-05T03:49:18.016Z,96.47
2019-03-05T03:50:17.977Z,96.47
2019-03-05T03:51:17.983Z,96.15
2019-03-05T03:52:17.960Z,96.78
2019-03-05T03:53:17.946Z,96.20
2019-03-05T03:54:18.077Z,96.09
2019-03-05T03:55:17.929Z,95.57
2019-03-05T03:56:17.918Z,94.38
2019-03-05T03:57:17.903Z,94.90
2019-03-05T03:58:17.899Z,94.84
2019-03-05T03:59:17.908Z,95.57
2019-03-05T04:00:17.870Z,95.15
2019-03-05T04:01:17.854Z,95.26
2019-03-05T04:02:17.854Z,95.09
2019-03-05T04:03:17.836Z,95.93
2019-03-05T04:04:17.860Z,95.72
2019-03-05T04:05:17.809Z,96.55
2019-03-05T04:06:17.802Z,96.55
2019-03-05T04:07:17.792Z,96.55
2019-03-05T04:08:17.776Z,96.34
2019-03-05T04:09:17.795Z,96.86
2019-03-05T04:10:17.766Z,96.76
2019-03-05T04:11:17.753Z,96.45
2019-03-05T04:12:17.746Z,96.66
2019-03-05T04:13:17.737Z,96.86
2019-03-05T04:14:17.747Z,96.76
2019-03-05T04:15:17.722Z,96.72
2019-03-05T04:16:17.714Z,96.82
2019-03-05T04:17:17.697Z,96.61
2019-03-05T04:18:17.679Z,96.41
2019-03-05T04:19:17.793Z,96.30
2019-03-05T04:20:17.660Z,96.61
2019-03-05T04:21:20.036Z,96.66
2019-03-05T04:22:17.641Z,96.55
2019-03-05T04:23:17.628Z,96.51
2019-03-05T04:24:17.624Z,97.24
2019-03-05T04:25:17.642Z,96.41
2019-03-05T04:26:17.600Z,96.55
2019-03-05T04:27:17.592Z,96.41
2019-03-05T04:28:17.580Z,96.51
2019-03-05T04:29:17.573Z,96.72
2019-03-05T04:30:17.586Z,96.51
2019-03-05T04:31:17.547Z,96.72
2019-03-05T04:32:17.540Z,96.72
2019-03-05T04:33:17.526Z,96.47
2019-03-05T04:34:17.520Z,96.36
2019-03-05T04:35:17.538Z,96.47
2019-03-05T04:36:17.492Z,96.47
2019-03-05T04:37:17.483Z,95.63
2019-03-05T04:38:17.472Z,95.84
2019-03-05T04:39:17.460Z,95.63
2019-03-05T04:40:17.478Z,95.17
2019-03-05T04:41:17.446Z,95.48
2019-03-05T04:42:17.434Z,94.45
2019-03-05T04:43:17.423Z,94.45
2019-03-05T04:44:17.412Z,94.55
2019-03-05T04:45:17.426Z,94.34
2019-03-05T04:46:17.401Z,94.55
2019-03-05T04:47:17.376Z,94.55
2019-03-05T04:48:17.367Z,94.30
2019-03-05T04:49:17.355Z,94.45
2019-03-05T04:50:17.405Z,94.30
2019-03-05T04:51:17.342Z,93.82
2019-03-05T04:52:17.328Z,94.30
2019-03-05T04:53:17.319Z,94.30
2019-03-05T04:54:17.304Z,94.61
2019-03-05T04:55:17.323Z,94.71
2019-03-05T04:56:17.304Z,94.30
2019-03-05T04:57:17.289Z,94.61
2019-03-05T04:58:17.267Z,94.51
2019-03-05T04:59:17.261Z,93.78
2019-03-05T05:00:17.269Z,94.09
2019-03-05T05:01:17.231Z,93.22
2019-03-05T05:02:17.227Z,92.90
2019-03-05T05:03:17.212Z,93.37
2019-03-05T05:04:17.208Z,93.37
2019-03-05T05:05:17.215Z,93.12
2019-03-05T05:06:17.188Z,93.12
2019-03-05T05:07:17.200Z,94.05
2019-03-05T05:08:17.159Z,94.30
2019-03-05T05:09:17.148Z,93.53
2019-03-05T05:10:17.165Z,93.84
2019-03-05T05:11:17.132Z,93.53
2019-03-05T05:12:17.118Z,93.05
2019-03-05T05:13:17.111Z,93.12
2019-03-05T05:14:17.113Z,92.69
2019-03-05T05:15:17.116Z,93.01
2019-03-05T05:16:17.078Z,92.90
2019-03-05T05:17:17.068Z,92.90
2019-03-05T05:18:17.058Z,92.59
2019-03-05T05:19:17.047Z,91.31
2019-03-05T05:20:17.056Z,91.55
2019-03-05T05:21:17.041Z,91.86
2019-03-05T05:22:17.010Z,91.97
2019-03-05T05:23:16.999Z,91.41
2019-03-05T05:24:16.996Z,91.20
2019-03-05T05:25:17.000Z,91.55
2019-03-05T05:26:17.859Z,91.45
2019-03-05T05:27:16.960Z,91.45
2019-03-05T05:28:16.943Z,91.24
2019-03-05T05:29:16.946Z,91.03
2019-03-05T05:30:16.956Z,90.20
2019-03-05T05:31:16.936Z,91.10
2019-03-05T05:32:16.911Z,90.17
2019-03-05T05:33:16.896Z,89.65
2019-03-05T05:34:16.890Z,90.69
2019-03-05T05:35:16.898Z,90.69
2019-03-05T05:36:16.867Z,91.10
2019-03-05T05:37:16.881Z,91.20
2019-03-05T05:38:16.840Z,92.03
2019-03-05T05:39:16.831Z,91.20
2019-03-05T05:40:16.845Z,90.79
2019-03-05T05:41:16.816Z,91.58
2019-03-05T05:42:16.808Z,91.00
2019-03-05T05:43:16.786Z,91.10
2019-03-05T05:44:16.779Z,90.85
2019-03-05T05:45:19.223Z,89.29
2019-03-05T05:46:16.761Z,89.09
2019-03-05T05:47:16.747Z,88.01
2019-03-05T05:48:16.735Z,90.23
2019-03-05T05:49:16.723Z,90.85
2019-03-05T05:50:16.748Z,90.75
2019-03-05T05:51:16.703Z,89.09
2019-03-05T05:52:16.692Z,88.01
2019-03-05T05:53:16.688Z,88.57
2019-03-05T05:54:16.676Z,89.56
2019-03-05T05:55:16.685Z,90.95
2019-03-05T05:56:16.655Z,89.71
2019-03-05T05:57:16.641Z,90.95
2019-03-05T05:58:16.633Z,91.27
2019-03-05T05:59:16.620Z,91.27
2019-03-05T06:00:16.633Z,90.95
2019-03-05T06:01:16.598Z,90.75
2019-03-05T06:02:16.586Z,90.54
2019-03-05T06:03:16.581Z,90.95
2019-03-05T06:04:16.572Z,91.00
2019-03-05T06:05:16.555Z,90.33
2019-03-05T06:06:16.576Z,89.61
2019-03-05T06:07:16.534Z,88.98
2019-03-05T06:08:16.526Z,89.71
2019-03-05T06:09:16.512Z,89.09
2019-03-05T06:10:16.500Z,89.19
2019-03-05T06:11:16.522Z,88.57
2019-03-05T06:12:16.479Z,88.46
2019-03-05T06:13:16.469Z,89.19
2019-03-05T06:14:16.459Z,89.81
2019-03-05T06:15:16.475Z,89.19
2019-03-05T06:16:16.467Z,88.78
2019-03-05T06:17:16.428Z,88.46
2019-03-05T06:18:16.417Z,87.90
2019-03-05T06:19:16.409Z,88.11
2019-03-05T06:20:16.406Z,87.80
2019-03-05T06:21:16.414Z,89.46
2019-03-05T06:22:16.378Z,89.04
2019-03-05T06:23:16.370Z,88.53
2019-03-05T06:24:16.352Z,86.97
2019-03-05T06:25:16.343Z,87.70
2019-03-05T06:26:16.358Z,86.97
2019-03-05T06:27:16.320Z,87.04
2019-03-05T06:28:16.347Z,87.04
2019-03-05T06:29:16.314Z,86.87
2019-03-05T06:30:16.287Z,89.46
2019-03-05T06:31:16.303Z,86.76
2019-03-05T06:32:17.454Z,87.24
2019-03-05T06:33:16.267Z,86.97
2019-03-05T06:34:16.253Z,86.87
2019-03-05T06:35:16.239Z,86.93
2019-03-05T06:36:16.256Z,86.87
2019-03-05T06:37:16.222Z,86.93
2019-03-05T06:38:16.210Z,85.79
2019-03-05T06:39:16.205Z,87.18
2019-03-05T06:40:16.183Z,86.00
2019-03-05T06:41:16.201Z,86.72
2019-03-05T06:42:16.163Z,85.69
2019-03-05T06:43:16.154Z,86.93
2019-03-05T06:44:16.141Z,85.38
2019-03-05T06:45:16.131Z,85.58
2019-03-05T06:46:16.148Z,85.27
2019-03-05T06:47:16.111Z,84.96
2019-03-05T06:48:16.096Z,85.38
2019-03-05T06:49:16.088Z,85.89
2019-03-05T06:50:16.075Z,86.41
2019-03-05T06:51:16.119Z,84.82
2019-03-05T06:52:16.056Z,86.31
2019-03-05T06:53:16.045Z,85.89
2019-03-05T06:54:16.035Z,87.04
2019-03-05T06:55:16.023Z,86.83
2019-03-05T06:56:16.037Z,87.04
2019-03-05T06:57:15.999Z,85.89
2019-03-05T06:58:16.009Z,86.21
2019-03-05T06:59:15.983Z,86.72
2019-03-05T07:00:15.973Z,86.41
2019-03-05T07:01:15.990Z,86.31
2019-03-05T07:02:15.951Z,85.58
2019-03-05T07:03:15.941Z,85.34
2019-03-05T07:04:15.925Z,83.99
2019-03-05T07:05:15.915Z,86.89
2019-03-05T07:06:15.939Z,86.68
2019-03-05T07:07:15.892Z,85.24
2019-03-05T07:08:15.884Z,85.86
2019-03-05T07:09:15.919Z,85.55
2019-03-05T07:10:15.863Z,84.51
2019-03-05T07:11:15.855Z,84.82
2019-03-05T07:12:15.843Z,85.96
2019-03-05T07:13:15.833Z,85.34
2019-03-05T07:14:15.819Z,85.86
2019-03-05T07:15:15.839Z,85.86
2019-03-05T07:16:15.828Z,86.79
2019-03-05T07:17:15.786Z,85.44
2019-03-05T07:18:15.816Z,85.55
2019-03-05T07:19:15.767Z,84.92
2019-03-05T07:20:15.755Z,83.99
2019-03-05T07:21:15.773Z,83.89
2019-03-05T07:22:15.739Z,84.16
2019-03-05T07:23:15.722Z,85.09
2019-03-05T07:24:15.714Z,85.50
2019-03-05T07:25:15.703Z,83.85
2019-03-05T07:26:15.722Z,84.68
2019-03-05T07:27:15.703Z,85.09
2019-03-05T07:28:15.678Z,84.47
2019-03-05T07:29:18.021Z,84.68
2019-03-05T07:30:15.652Z,85.09
2019-03-05T07:31:15.670Z,84.74
2019-03-05T07:32:15.628Z,83.85
2019-03-05T07:33:15.622Z,83.85
2019-03-05T07:34:15.613Z,83.12
2019-03-05T07:35:15.603Z,83.23
2019-03-05T07:36:15.611Z,82.67
2019-03-05T07:37:15.596Z,82.92
2019-03-05T07:38:15.566Z,82.98
2019-03-05T07:39:15.553Z,81.84
2019-03-05T07:40:15.548Z,84.22
2019-03-05T07:41:15.559Z,81.74
2019-03-05T07:42:15.526Z,81.23
2019-03-05T07:43:15.511Z,82.88
2019-03-05T07:44:15.515Z,81.09
2019-03-05T07:45:15.498Z,82.64
2019-03-05T07:46:15.610Z,81.19
2019-03-05T07:47:15.469Z,81.25
2019-03-05T07:48:15.475Z,83.73
2019-03-05T07:49:15.452Z,83.01
2019-03-05T07:50:15.436Z,82.90
2019-03-05T07:51:15.426Z,80.63
2019-03-05T07:52:15.450Z,79.36
2019-03-05T07:53:15.408Z,81.32
2019-03-05T07:54:15.395Z,82.56
2019-03-05T07:55:15.391Z,81.25
2019-03-05T07:56:15.375Z,82.08
2019-03-05T07:57:15.390Z,82.60
2019-03-05T07:58:15.354Z,83.56
2019-03-05T07:59:15.344Z,84.29
2019-03-05T08:00:15.336Z,84.22
2019-03-05T08:01:22.229Z,83.67
2019-03-05T08:02:16.345Z,81.33
2019-03-05T08:03:15.303Z,82.98
2019-03-05T08:04:15.292Z,82.22
2019-03-05T08:05:15.288Z,81.81
2019-03-05T08:06:15.268Z,81.64
2019-03-05T08:07:15.281Z,83.40
2019-03-05T08:08:26.194Z,83.40
2019-03-05T08:09:16.238Z,84.64
2019-03-05T08:10:15.232Z,85.82
2019-03-05T08:11:15.219Z,86.33
2019-03-05T08:12:15.233Z,86.99
2019-03-05T08:13:15.197Z,86.89
2019-03-05T08:14:15.192Z,87.82
2019-03-05T08:15:15.173Z,89.28
2019-03-05T08:16:15.168Z,87.82
2019-03-05T08:17:15.177Z,89.13
2019-03-05T08:18:15.144Z,89.44
2019-03-05T08:19:15.131Z,87.68
2019-03-05T08:20:15.123Z,87.54
2019-03-05T08:21:15.118Z,86.77
2019-03-05T08:22:15.127Z,87.70
2019-03-05T08:23:15.111Z,86.88
2019-03-05T08:24:15.083Z,86.50
2019-03-05T08:25:15.067Z,85.88
2019-03-05T08:26:15.055Z,86.23
2019-03-05T08:27:15.071Z,86.65
2019-03-05T08:28:15.040Z,86.44
2019-03-05T08:29:15.025Z,86.40
2019-03-05T08:30:15.141Z,87.56
2019-03-05T08:31:15.004Z,84.56
2019-03-05T08:32:15.023Z,82.76
2019-03-05T08:33:14.984Z,82.52
2019-03-05T08:34:14.979Z,82.83
2019-03-05T08:35:14.965Z,81.45
2019-03-05T08:36:14.958Z,81.07
2019-03-05T08:37:14.970Z,84.03
2019-03-05T08:38:14.935Z,83.97
2019-03-05T08:39:14.925Z,82.62
2019-03-05T08:40:14.919Z,84.28
2019-03-05T08:41:14.910Z,82.73
2019-03-05T08:42:14.930Z,82.83
2019-03-05T08:43:14.885Z,84.73
2019-03-05T08:44:14.869Z,84.42
2019-03-05T08:45:14.861Z,86.21
2019-03-05T08:46:14.851Z,84.36
2019-03-05T08:47:14.877Z,86.28
2019-03-05T08:48:14.823Z,85.60
2019-03-05T08:49:14.816Z,84.77
2019-03-05T08:50:14.805Z,84.60
2019-03-05T08:51:14.791Z,86.15
2019-03-05T08:52:14.808Z,85.28
2019-03-05T08:53:14.776Z,85.32
2019-03-05T08:54:14.760Z,86.88
2019-03-05T08:55:14.757Z,86.67
2019-03-05T08:56:14.740Z,86.88
2019-03-05T08:57:14.757Z,86.09
2019-03-05T08:58:14.724Z,85.88
2019-03-05T08:59:14.706Z,86.81
2019-03-05T09:00:14.701Z,87.64
2019-03-05T09:01:14.684Z,88.26
2019-03-05T09:02:14.699Z,86.91
2019-03-05T09:03:14.669Z,87.85
2019-03-05T09:04:14.651Z,88.32
2019-03-05T09:05:14.645Z,86.88
2019-03-05T09:06:14.635Z,87.56
2019-03-05T09:07:14.664Z,86.83
2019-03-05T09:08:14.616Z,84.66
2019-03-05T09:09:14.602Z,85.49
2019-03-05T09:10:14.599Z,86.11
2019-03-05T09:11:14.579Z,85.08
2019-03-05T09:12:14.624Z,85.35
2019-03-05T09:13:14.559Z,87.35
2019-03-05T09:14:14.556Z,87.76
2019-03-05T09:15:14.584Z,86.25
2019-03-05T09:16:14.527Z,86.71
2019-03-05T09:17:14.541Z,87.54
2019-03-05T09:18:14.506Z,89.09
2019-03-05T09:19:14.500Z,86.50
2019-03-05T09:20:14.483Z,85.50
2019-03-05T09:21:14.471Z,85.82
2019-03-05T09:22:14.501Z,86.50
2019-03-05T09:23:14.454Z,88.16
2019-03-05T09:24:14.445Z,88.26
2019-03-05T09:25:14.432Z,86.91
2019-03-05T09:26:14.425Z,85.47
2019-03-05T09:27:14.454Z,85.99
2019-03-05T09:28:14.402Z,86.60
2019-03-05T09:29:14.398Z,86.54
2019-03-05T09:30:14.375Z,86.75
2019-03-05T09:31:14.365Z,86.40
2019-03-05T09:32:14.359Z,86.60
2019-03-05T09:33:14.384Z,87.78
2019-03-05T09:34:14.342Z,87.74
2019-03-05T09:35:14.329Z,88.51
2019-03-05T09:36:14.312Z,88.26
2019-03-05T09:37:14.306Z,87.88
2019-03-05T09:38:14.326Z,86.96
2019-03-05T09:39:14.285Z,86.33
2019-03-05T09:40:14.273Z,88.26
2019-03-05T09:41:14.264Z,89.34
2019-03-05T09:42:14.250Z,87.27
2019-03-05T09:43:14.264Z,87.27
2019-03-05T09:44:14.241Z,87.68
2019-03-05T09:45:14.220Z,86.85
2019-03-05T09:46:14.212Z,88.09
2019-03-05T09:47:14.205Z,86.71
2019-03-05T09:48:14.214Z,86.29
2019-03-05T09:49:14.183Z,86.29
2019-03-05T09:50:14.163Z,86.96
2019-03-05T09:51:14.166Z,87.99
2019-03-05T09:52:14.143Z,89.03
2019-03-05T09:53:14.159Z,88.40
2019-03-05T09:54:14.128Z,88.71
2019-03-05T09:55:14.113Z,89.34
2019-03-05T09:56:14.104Z,89.28
2019-03-05T09:57:14.105Z,90.41
2019-03-05T09:58:14.103Z,90.37
2019-03-05T09:59:14.091Z,89.03
2019-03-05T10:00:14.059Z,90.06
2019-03-05T10:01:14.050Z,90.64
2019-03-05T10:02:14.044Z,90.53
2019-03-05T10:03:14.053Z,89.46
2019-03-05T10:04:14.015Z,88.36
2019-03-05T10:05:14.008Z,87.33
2019-03-05T10:06:14.000Z,90.33
2019-03-05T10:07:19.026Z,89.98
2019-03-05T10:08:15.003Z,87.25
2019-03-05T10:09:13.963Z,86.26
2019-03-05T10:10:13.953Z,81.26
2019-03-05T10:11:13.943Z,84.45
2019-03-05T10:12:13.934Z,83.12
2019-03-05T10:13:13.947Z,82.50
2019-03-05T10:14:13.914Z,83.40
2019-03-05T10:15:13.899Z,82.57
2019-03-05T10:16:13.950Z,83.95
2019-03-05T10:17:13.923Z,84.36
2019-03-05T10:18:14.052Z,84.20
2019-03-05T10:19:13.865Z,84.51
2019-03-05T10:20:13.920Z,86.26
2019-03-05T10:21:13.839Z,84.34
2019-03-05T10:22:13.836Z,84.03
2019-03-05T10:23:13.844Z,86.51
2019-03-05T10:24:13.820Z,86.02
2019-03-05T10:25:13.806Z,86.24
2019-03-05T10:26:13.790Z,83.94
2019-03-05T10:27:13.783Z,83.28
2019-03-05T10:28:13.800Z,81.16
2019-03-05T10:29:13.752Z,82.09
2019-03-05T10:30:24.168Z,84.97
2019-03-05T10:31:14.731Z,80.95
2019-03-05T10:32:13.736Z,82.81
2019-03-05T10:33:13.738Z,83.07
2019-03-05T10:34:13.700Z,80.67
2019-03-05T10:35:13.687Z,80.12
2019-03-05T10:36:13.681Z,78.30
2019-03-05T10:37:18.799Z,79.91
2019-03-05T10:38:14.683Z,76.73
2019-03-05T10:39:13.645Z,78.41
2019-03-05T10:40:13.636Z,77.17
2019-03-05T10:41:13.632Z,78.10
2019-03-05T10:42:13.616Z,80.16
2019-03-05T10:43:13.629Z,79.67
2019-03-05T10:44:13.593Z,77.48
2019-03-05T10:45:13.581Z,78.40
2019-03-05T10:46:13.576Z,75.83
2019-03-05T10:47:13.559Z,73.85
2019-03-05T10:48:13.571Z,74.32
2019-03-05T10:49:13.543Z,72.61
2019-03-05T10:50:15.667Z,73.57
2019-03-05T10:51:13.517Z,70.14
2019-03-05T10:52:13.508Z,70.03
2019-03-05T10:53:13.520Z,71.86
2019-03-05T10:54:13.484Z,70.29
2019-03-05T10:55:13.475Z,67.91
2019-03-05T10:56:13.463Z,70.61
2019-03-05T10:57:13.453Z,69.95
2019-03-05T10:58:13.470Z,68.25
2019-03-05T10:59:13.434Z,68.30
2019-03-05T11:00:13.426Z,66.08
2019-03-05T11:01:13.411Z,65.71
2019-03-05T11:02:13.403Z,59.84
2019-03-05T11:03:13.416Z,62.35
2019-03-05T11:04:13.408Z,65.34
2019-03-05T11:05:13.372Z,61.00
2019-03-05T11:06:13.364Z,65.08
2019-03-05T11:07:13.345Z,60.95
2019-03-05T11:08:13.386Z,59.57
2019-03-05T11:09:13.330Z,55.91
2019-03-05T11:10:13.317Z,55.68
2019-03-05T11:11:14.112Z,54.66
2019-03-05T11:12:13.300Z,64.34
2019-03-05T11:13:13.281Z,67.07
2019-03-05T11:14:13.298Z,61.91
2019-03-05T11:15:13.262Z,60.19
2019-03-05T11:16:13.253Z,63.31
2019-03-05T11:17:13.240Z,63.12
2019-03-05T11:18:13.232Z,64.64
2019-03-05T11:19:13.243Z,68.45
2019-03-05T11:20:13.214Z,68.88
2019-03-05T11:21:13.202Z,74.46
2019-03-05T11:22:13.186Z,74.19
2019-03-05T11:23:13.179Z,70.01
2019-03-05T11:24:13.201Z,72.81
2019-03-05T11:25:13.155Z,73.47
2019-03-05T11:26:13.143Z,75.18
2019-03-05T11:27:13.132Z,74.33
2019-03-05T11:28:13.135Z,74.05
2019-03-05T11:29:13.140Z,73.78
2019-03-05T11:30:13.102Z,74.29
2019-03-05T11:31:13.092Z,74.91
2019-03-05T11:32:13.082Z,74.60
2019-03-05T11:33:13.078Z,72.06
2019-03-05T11:34:13.355Z,73.13
2019-03-05T11:35:13.053Z,76.73
2019-03-05T11:36:13.054Z,77.35
2019-03-05T11:37:13.025Z,74.22
2019-03-05T11:38:13.026Z,73.98
2019-03-05T11:39:13.183Z,74.16
2019-03-05T11:40:20.790Z,77.76
2019-03-05T11:41:13.983Z,75.29
2019-03-05T11:42:12.971Z,75.39
2019-03-05T11:43:13.017Z,73.13
2019-03-05T11:44:12.991Z,75.70
2019-03-05T11:45:12.951Z,76.25
2019-03-05T11:46:12.936Z,77.04
2019-03-05T11:47:12.922Z,77.76
2019-03-05T11:48:12.908Z,77.76
2019-03-05T11:49:12.926Z,78.03
2019-03-05T11:50:12.887Z,75.60
2019-03-05T11:51:12.878Z,74.67
2019-03-05T11:52:12.866Z,77.72
2019-03-05T11:53:12.871Z,74.53
2019-03-05T11:54:12.866Z,72.99
2019-03-05T11:55:12.832Z,76.59
2019-03-05T11:56:12.824Z,75.67
2019-03-05T11:57:12.816Z,74.29
2019-03-05T11:58:12.801Z,74.50
2019-03-05T11:59:12.816Z,78.17
2019-03-05T12:00:12.776Z,74.05
2019-03-05T12:01:12.773Z,73.47
2019-03-05T12:02:21.532Z,74.05
2019-03-05T12:03:13.748Z,72.17
2019-03-05T12:04:12.757Z,69.71
2019-03-05T12:05:12.743Z,68.21
2019-03-05T12:06:12.708Z,66.14
2019-03-05T12:07:12.705Z,62.52
2019-03-05T12:08:12.691Z,61.14
2019-03-05T12:09:12.704Z,62.13
2019-03-05T12:10:12.672Z,60.19
2019-03-05T12:11:12.661Z,53.83
2019-03-05T12:12:12.647Z,55.10
2019-03-05T12:13:14.536Z,57.78
2019-03-05T12:14:12.654Z,60.07
2019-03-05T12:15:12.636Z,62.82
2019-03-05T12:16:12.604Z,59.19
2019-03-05T12:17:12.592Z,55.91
2019-03-05T12:18:12.590Z,58.23
2019-03-05T12:19:12.601Z,57.93
2019-03-05T12:20:12.570Z,60.23
2019-03-05T12:21:12.570Z,64.00
2019-03-05T12:22:12.541Z,64.47
2019-03-05T12:23:12.532Z,64.77
2019-03-05T12:24:12.548Z,61.54
2019-03-05T12:25:12.514Z,60.99
2019-03-05T12:26:12.504Z,68.08
2019-03-05T12:27:12.489Z,66.13
2019-03-05T12:28:12.480Z,66.75
2019-03-05T12:29:12.497Z,65.24
2019-03-05T12:30:12.466Z,66.81
2019-03-05T12:31:12.452Z,65.99
2019-03-05T12:32:12.444Z,65.42
2019-03-05T12:33:12.428Z,63.28
2019-03-05T12:34:12.454Z,61.75
2019-03-05T12:35:12.414Z,64.77
2019-03-05T12:36:12.403Z,65.11
2019-03-05T12:37:12.385Z,65.89
2019-03-05T12:38:12.382Z,67.73
2019-03-05T12:39:12.388Z,64.79
2019-03-05T12:40:12.358Z,66.63
2019-03-05T12:41:12.344Z,64.72
2019-03-05T12:42:12.338Z,68.00
2019-03-05T12:43:12.327Z,66.90
2019-03-05T12:44:12.336Z,68.24
2019-03-05T12:45:12.308Z,67.76
2019-03-05T12:46:12.295Z,66.52
2019-03-05T12:47:12.283Z,68.48
2019-03-05T12:48:12.270Z,65.80
2019-03-05T12:49:12.298Z,69.09
2019-03-05T12:50:12.250Z,69.32
2019-03-05T12:51:12.239Z,70.22
2019-03-05T12:52:12.225Z,67.14